Time;durP1;ratioP1;P1;durP2;ratioP2;P2;SDS_P1;SDS_P2;PMS_P1;PMS_P2;Temp;Humidity;BMP_temperature;BMP_pressure;BME280_temperature;BME280_humidity;BME280_pressure;Samples;Min_cycle;Max_cycle;Signal;HPM_P1;HPM_P2
2022/02/13 00:02:06;;;;;;;12.03;6.37;;;3.60;99.90;;;;;;4969055;28;20212;-77
2022/02/13 00:04:33;;;;;;;9.87;6.30;;;3.60;99.90;;;;;;4968122;28;20608;-78
2022/02/13 00:07:00;;;;;;;10.70;6.33;;;3.60;99.90;;;;;;4968259;28;20215;-79
2022/02/13 00:09:28;;;;;;;12.90;6.97;;;3.60;99.90;;;;;;4978177;28;20214;-79
2022/02/13 00:11:56;;;;;;;13.67;7.30;;;3.50;99.90;;;;;;4987687;28;20193;-78
2022/02/13 00:14:23;;;;;;;16.03;6.93;;;3.60;99.90;;;;;;4978053;28;20716;-81
2022/02/13 00:16:49;;;;;;;12.03;6.83;;;3.50;99.90;;;;;;4968654;28;20510;-78
2022/02/13 00:19:16;;;;;;;11.87;7.00;;;3.50;99.90;;;;;;4967574;28;20217;-77
2022/02/13 00:21:43;;;;;;;11.60;6.93;;;3.50;99.90;;;;;;4968374;28;20209;-78
2022/02/13 00:24:09;;;;;;;12.83;7.33;;;3.50;99.90;;;;;;4982985;28;20204;-80
2022/02/13 00:26:37;;;;;;;12.43;7.20;;;3.50;99.90;;;;;;4987327;28;20755;-79
2022/02/13 00:29:05;;;;;;;11.73;6.77;;;3.50;99.90;;;;;;4988003;28;20965;-79
2022/02/13 00:31:32;;;;;;;11.47;6.73;;;3.50;99.90;;;;;;4987748;28;20204;-78
2022/02/13 00:33:58;;;;;;;10.80;6.73;;;3.50;99.90;;;;;;4968433;28;20205;-78
2022/02/13 00:36:25;;;;;;;14.47;8.00;;;3.50;99.90;;;;;;4969678;28;20215;-80
2022/02/13 00:38:52;;;;;;;11.27;6.97;;;3.50;99.90;;;;;;4968712;28;20231;-79
2022/02/13 00:41:19;;;;;;;12.17;7.00;;;3.50;99.90;;;;;;4977272;28;20667;-79
2022/02/13 00:43:46;;;;;;;10.83;7.23;;;3.50;99.90;;;;;;4988232;28;20211;-78
2022/02/13 00:46:14;;;;;;;12.70;7.30;;;3.50;99.90;;;;;;4988315;28;20214;-79
2022/02/13 00:48:41;;;;;;;10.10;7.07;;;3.50;99.90;;;;;;4988512;28;20203;-80
2022/02/13 00:51:07;;;;;;;11.97;7.40;;;3.60;99.90;;;;;;4988189;28;20211;-78
2022/02/13 00:53:34;;;;;;;11.37;7.77;;;3.60;99.90;;;;;;4987405;28;20208;-80
2022/02/13 00:56:01;;;;;;;11.30;6.87;;;3.60;99.90;;;;;;4987678;28;20666;-79
2022/02/13 00:58:28;;;;;;;12.00;7.43;;;3.60;99.90;;;;;;4988226;28;20235;-78
2022/02/13 01:00:55;;;;;;;14.63;7.97;;;3.60;99.90;;;;;;4987053;28;20271;-78
2022/02/13 01:03:23;;;;;;;12.30;7.23;;;3.60;99.90;;;;;;4987304;28;20200;-80
2022/02/13 01:05:50;;;;;;;9.90;6.97;;;3.70;99.90;;;;;;4987923;28;20204;-80
2022/02/13 01:08:16;;;;;;;10.30;6.60;;;3.70;99.90;;;;;;4987435;28;20200;-79
2022/02/13 01:10:44;;;;;;;11.83;6.67;;;3.60;99.90;;;;;;4986423;28;20314;-78
2022/02/13 01:13:11;;;;;;;13.73;7.17;;;3.70;99.90;;;;;;4987703;28;20211;-78
2022/02/13 01:15:37;;;;;;;10.27;7.50;;;3.70;99.90;;;;;;4986938;28;20626;-80
2022/02/13 01:18:04;;;;;;;11.63;7.00;;;3.70;99.90;;;;;;4974010;28;20240;-78
2022/02/13 01:20:33;;;;;;;15.50;7.07;;;3.80;99.90;;;;;;4967640;28;20193;-78
2022/02/13 01:23:00;;;;;;;13.83;7.77;;;3.80;99.90;;;;;;4967551;28;20253;-78
2022/02/13 01:25:27;;;;;;;11.17;6.50;;;3.80;99.90;;;;;;4968228;28;20230;-78
2022/02/13 01:27:54;;;;;;;12.07;7.73;;;3.70;99.90;;;;;;4968937;28;20626;-80
2022/02/13 01:30:21;;;;;;;12.50;7.50;;;3.70;99.90;;;;;;4967599;28;20201;-80
2022/02/13 01:32:48;;;;;;;13.07;6.97;;;3.80;99.90;;;;;;4968279;28;20217;-79
2022/02/13 01:35:15;;;;;;;11.20;7.27;;;3.70;99.90;;;;;;4967270;28;20588;-77
2022/02/13 01:37:43;;;;;;;13.40;7.93;;;3.80;99.90;;;;;;4980153;28;20910;-78
2022/02/13 01:40:11;;;;;;;11.17;7.10;;;3.70;99.90;;;;;;4987815;28;20230;-81
2022/02/13 01:42:38;;;;;;;12.97;6.97;;;3.70;99.90;;;;;;4987253;28;20204;-79
2022/02/13 01:45:05;;;;;;;11.93;7.63;;;3.70;99.90;;;;;;4986981;28;20291;-80
2022/02/13 01:47:34;;;;;;;14.83;7.93;;;3.70;99.90;;;;;;4987463;28;20906;-77
2022/02/13 01:50:01;;;;;;;12.40;7.93;;;3.70;99.90;;;;;;4973041;28;20868;-79
2022/02/13 01:52:28;;;;;;;11.10;6.83;;;3.80;99.90;;;;;;4967931;28;20530;-79
2022/02/13 01:54:58;;;;;;;11.33;7.27;;;3.80;99.90;;;;;;4967505;28;20641;-79
2022/02/13 01:57:26;;;;;;;12.40;7.33;;;3.80;99.90;;;;;;4966944;28;20215;-81
2022/02/13 01:59:52;;;;;;;11.57;7.73;;;3.70;99.90;;;;;;4967103;28;20232;-80
2022/02/13 02:02:19;;;;;;;13.13;7.33;;;3.70;99.90;;;;;;4967220;28;20598;-80
2022/02/13 02:04:47;;;;;;;12.83;7.30;;;3.70;99.90;;;;;;4965535;28;20842;-79
2022/02/13 02:07:14;;;;;;;14.70;7.43;;;3.70;99.90;;;;;;4967221;28;20212;-79
2022/02/13 02:09:45;;;;;;;11.20;7.20;;;3.70;99.90;;;;;;4967120;28;20200;-81
2022/02/13 02:12:14;;;;;;;8.87;6.93;;;3.70;99.90;;;;;;4973916;28;20199;-80
2022/02/13 02:14:40;;;;;;;11.57;7.13;;;3.80;99.90;;;;;;5006343;28;20210;-80
2022/02/13 02:17:08;;;;;;;12.33;7.13;;;3.70;99.90;;;;;;4998365;28;20672;-78
2022/02/13 02:19:37;;;;;;;14.90;8.33;;;3.80;99.90;;;;;;5005768;28;20655;-80
2022/02/13 02:22:06;;;;;;;16.33;7.37;;;3.80;99.90;;;;;;4989764;28;20719;-79
2022/02/13 02:24:34;;;;;;;11.10;6.53;;;3.80;99.90;;;;;;4966488;28;20197;-81
2022/02/13 02:27:03;;;;;;;11.50;7.63;;;3.80;99.90;;;;;;4967448;28;20224;-77
2022/02/13 02:29:30;;;;;;;12.20;6.40;;;3.80;99.90;;;;;;4966832;28;20204;-79
2022/02/13 02:31:57;;;;;;;10.93;6.87;;;3.80;99.90;;;;;;4966894;28;20255;-80
2022/02/13 02:34:24;;;;;;;14.90;7.43;;;3.70;99.90;;;;;;4979950;28;20219;-80
2022/02/13 02:36:51;;;;;;;10.00;7.13;;;3.70;99.90;;;;;;4986264;28;20200;-80
2022/02/13 02:39:17;;;;;;;12.73;7.20;;;3.70;99.90;;;;;;4985966;28;20223;-79
2022/02/13 02:41:46;;;;;;;11.67;7.63;;;3.70;99.90;;;;;;4973722;28;20692;-79
2022/02/13 02:44:12;;;;;;;12.37;8.30;;;3.70;99.90;;;;;;4967556;28;20205;-80
2022/02/13 02:46:39;;;;;;;9.77;6.90;;;3.70;99.90;;;;;;4973208;28;20204;-75
2022/02/13 02:49:06;;;;;;;10.50;7.17;;;3.70;99.90;;;;;;4985863;28;20195;-81
2022/02/13 02:51:33;;;;;;;12.00;6.73;;;3.70;99.90;;;;;;4986397;28;20200;-80
2022/02/13 02:54:00;;;;;;;12.27;6.90;;;3.60;99.90;;;;;;4985632;28;20243;-81
2022/02/13 02:56:26;;;;;;;9.97;6.47;;;3.60;99.90;;;;;;4986408;28;20216;-79
2022/02/13 02:58:55;;;;;;;10.53;7.40;;;3.60;99.90;;;;;;4986536;28;20223;-79
2022/02/13 03:01:22;;;;;;;12.90;7.13;;;3.60;99.90;;;;;;4985078;28;20918;-76
2022/02/13 03:03:48;;;;;;;10.20;6.77;;;3.60;99.90;;;;;;4985894;28;20222;-78
2022/02/13 03:06:15;;;;;;;8.77;6.90;;;3.50;99.90;;;;;;4982339;28;20528;-80
2022/02/13 03:08:42;;;;;;;10.63;6.53;;;3.50;99.90;;;;;;4965419;28;20201;-78
2022/02/13 03:11:09;;;;;;;9.40;6.70;;;3.50;99.90;;;;;;4973832;28;20208;-78
2022/02/13 03:13:36;;;;;;;14.03;6.93;;;3.50;99.90;;;;;;4985863;28;20204;-79
2022/02/13 03:16:04;;;;;;;13.00;6.97;;;3.40;99.90;;;;;;4985300;28;20207;-81
2022/02/13 03:18:31;;;;;;;10.73;6.23;;;3.40;99.90;;;;;;4986370;28;20662;-80
2022/02/13 03:20:59;;;;;;;12.73;7.23;;;3.30;99.90;;;;;;4985377;28;20208;-80
2022/02/13 03:23:26;;;;;;;12.90;6.67;;;3.30;99.90;;;;;;4986556;28;20211;-80
2022/02/13 03:25:53;;;;;;;11.20;6.23;;;3.30;99.90;;;;;;4985936;28;20204;-78
2022/02/13 03:28:20;;;;;;;10.57;7.03;;;3.30;99.90;;;;;;4985218;28;20235;-80
2022/02/13 03:30:47;;;;;;;13.27;8.33;;;3.20;99.90;;;;;;4986034;28;20207;-80
2022/02/13 03:33:15;;;;;;;9.60;7.10;;;3.20;99.90;;;;;;4987537;28;20212;-80
2022/02/13 03:35:43;;;;;;;12.93;7.23;;;3.10;99.90;;;;;;4989076;28;20293;-79
2022/02/13 03:38:09;;;;;;;11.67;7.30;;;3.10;99.90;;;;;;4981523;28;20302;-80
2022/02/13 03:40:36;;;;;;;11.93;6.77;;;3.10;99.90;;;;;;4990786;28;20918;-80
2022/02/13 03:43:05;;;;;;;9.17;6.47;;;3.00;99.90;;;;;;4989385;28;20212;-78
2022/02/13 03:45:32;;;;;;;10.60;6.97;;;3.10;99.90;;;;;;4977251;28;20208;-79
2022/02/13 03:47:58;;;;;;;10.33;6.47;;;3.00;99.90;;;;;;4988679;28;20215;-79
2022/02/13 03:50:26;;;;;;;12.67;7.80;;;3.00;99.90;;;;;;4989006;28;20276;-78
2022/02/13 03:52:53;;;;;;;12.33;7.10;;;3.00;99.90;;;;;;4988864;28;20208;-77
2022/02/13 03:55:20;;;;;;;12.50;7.07;;;3.00;99.90;;;;;;4966852;28;20581;-80
2022/02/13 03:57:47;;;;;;;12.70;7.53;;;3.00;99.90;;;;;;4969144;28;20220;-80
2022/02/13 04:00:14;;;;;;;8.67;6.83;;;2.90;99.90;;;;;;4969616;28;20225;-77
2022/02/13 04:02:42;;;;;;;12.47;7.50;;;2.90;99.90;;;;;;4970660;28;20621;-79
2022/02/13 04:05:09;;;;;;;9.90;6.87;;;2.90;99.90;;;;;;4970196;28;20216;-79
2022/02/13 04:07:39;;;;;;;9.80;7.07;;;2.90;99.90;;;;;;4970066;28;20621;-78
2022/02/13 04:10:07;;;;;;;10.93;7.10;;;2.80;99.90;;;;;;4969421;28;20209;-77
2022/02/13 04:12:34;;;;;;;12.60;7.07;;;2.80;99.90;;;;;;4969977;28;20235;-81
2022/02/13 04:15:01;;;;;;;11.43;7.50;;;2.80;99.90;;;;;;4969840;28;20197;-80
2022/02/13 04:17:28;;;;;;;14.13;7.53;;;2.80;99.90;;;;;;4967957;28;20240;-80
2022/02/13 04:19:55;;;;;;;12.97;7.47;;;2.80;99.90;;;;;;4968995;28;20228;-79
2022/02/13 04:22:22;;;;;;;10.00;7.60;;;2.70;99.90;;;;;;4970124;28;20208;-77
2022/02/13 04:24:50;;;;;;;10.13;7.57;;;2.70;99.90;;;;;;4969521;28;20201;-80
2022/02/13 04:27:17;;;;;;;11.13;7.13;;;2.70;99.90;;;;;;4969136;28;20192;-79
2022/02/13 04:29:43;;;;;;;12.83;7.30;;;2.70;99.90;;;;;;4969603;28;20197;-76
2022/02/13 04:32:10;;;;;;;12.07;8.10;;;2.70;99.90;;;;;;4969531;28;20217;-77
2022/02/13 04:34:37;;;;;;;17.77;8.00;;;2.60;99.90;;;;;;4969023;28;20213;-78
2022/02/13 04:37:04;;;;;;;10.10;7.37;;;2.60;99.90;;;;;;4968591;28;20219;-77
2022/02/13 04:39:31;;;;;;;14.17;8.17;;;2.60;99.90;;;;;;4967370;28;20951;-79
2022/02/13 04:41:59;;;;;;;11.87;8.30;;;2.60;99.90;;;;;;4969292;28;20212;-78
2022/02/13 04:44:26;;;;;;;11.50;7.50;;;2.60;99.90;;;;;;4968285;28;20201;-80
2022/02/13 04:46:52;;;;;;;11.30;7.80;;;2.60;99.90;;;;;;4977586;28;20240;-79
2022/02/13 04:49:19;;;;;;;12.77;7.90;;;2.70;99.90;;;;;;4971357;28;20543;-80
2022/02/13 04:51:46;;;;;;;11.50;7.60;;;2.70;99.90;;;;;;4969273;28;20208;-76
2022/02/13 04:54:13;;;;;;;11.60;7.30;;;2.70;99.90;;;;;;4968265;28;20244;-77
2022/02/13 04:56:40;;;;;;;10.27;7.47;;;2.70;99.90;;;;;;4969059;28;20212;-80
2022/02/13 04:59:09;;;;;;;11.73;7.80;;;2.80;99.90;;;;;;4994370;28;20239;-79
2022/02/13 05:01:36;;;;;;;11.93;8.17;;;2.80;99.90;;;;;;5007434;28;20596;-78
2022/02/13 05:04:03;;;;;;;13.50;8.00;;;2.80;99.90;;;;;;5007428;28;20557;-79
2022/02/13 05:06:30;;;;;;;9.77;6.73;;;2.80;99.90;;;;;;5007461;28;20208;-77
2022/02/13 05:08:57;;;;;;;12.67;7.47;;;2.80;99.90;;;;;;4996431;28;20215;-77
2022/02/13 05:11:26;;;;;;;11.83;7.53;;;2.80;99.90;;;;;;4987892;28;20635;-78
2022/02/13 05:13:53;;;;;;;13.20;8.40;;;2.90;99.90;;;;;;5002848;28;20211;-78
2022/02/13 05:16:21;;;;;;;10.90;8.20;;;2.90;99.90;;;;;;5007637;28;20214;-79
2022/02/13 05:18:48;;;;;;;10.53;7.47;;;2.90;99.90;;;;;;5007733;28;20203;-79
2022/02/13 05:21:15;;;;;;;10.23;7.10;;;2.90;99.90;;;;;;5007027;28;20619;-79
2022/02/13 05:23:42;;;;;;;10.00;7.63;;;2.90;99.90;;;;;;5007808;28;20269;-79
2022/02/13 05:26:12;;;;;;;10.50;7.50;;;2.90;99.90;;;;;;4996911;28;20314;-80
2022/02/13 05:28:38;;;;;;;9.87;7.07;;;3.00;99.90;;;;;;4987962;28;20315;-79
2022/02/13 05:31:05;;;;;;;12.80;8.07;;;3.00;99.90;;;;;;4987780;28;20620;-78
2022/02/13 05:33:33;;;;;;;11.80;8.30;;;3.00;99.90;;;;;;4987568;28;20219;-79
2022/02/13 05:36:00;;;;;;;9.83;7.03;;;3.00;99.90;;;;;;4987634;28;20249;-78
2022/02/13 05:38:27;;;;;;;10.63;7.57;;;3.10;99.90;;;;;;4987043;28;20479;-77
2022/02/13 05:40:53;;;;;;;11.27;8.17;;;3.10;99.90;;;;;;4987242;28;21052;-80
2022/02/13 05:43:20;;;;;;;11.07;7.47;;;3.10;99.90;;;;;;4985942;28;20208;-79
2022/02/13 05:45:47;;;;;;;11.10;7.10;;;3.10;99.90;;;;;;4988086;28;20208;-80
2022/02/13 05:48:14;;;;;;;11.13;7.20;;;3.20;99.90;;;;;;5006514;28;20246;-80
2022/02/13 05:50:42;;;;;;;10.20;7.67;;;3.20;99.90;;;;;;5006007;28;20199;-77
2022/02/13 05:53:09;;;;;;;12.33;7.43;;;3.20;99.90;;;;;;5006716;28;20253;-80
2022/02/13 05:55:36;;;;;;;18.83;8.97;;;3.20;99.90;;;;;;4978275;28;20251;-81
2022/02/13 05:58:03;;;;;;;13.00;7.17;;;3.20;99.90;;;;;;4967141;28;20201;-78
2022/02/13 06:00:30;;;;;;;11.80;7.30;;;3.20;99.90;;;;;;4967565;28;20228;-76
2022/02/13 06:02:56;;;;;;;12.67;8.07;;;3.20;99.90;;;;;;4966369;28;20209;-78
2022/02/13 06:05:23;;;;;;;11.87;7.80;;;3.20;99.90;;;;;;4967562;28;20610;-81
2022/02/13 06:07:51;;;;;;;11.93;7.80;;;3.20;99.90;;;;;;4966615;28;20212;-79
2022/02/13 06:10:18;;;;;;;11.07;7.20;;;3.20;99.90;;;;;;4966902;28;20208;-80
2022/02/13 06:12:45;;;;;;;13.23;7.63;;;3.20;99.90;;;;;;4967776;28;20553;-80
2022/02/13 06:15:12;;;;;;;12.83;8.00;;;3.10;99.90;;;;;;4967156;28;20197;-78
2022/02/13 06:17:38;;;;;;;14.43;8.27;;;3.10;99.90;;;;;;4966860;28;20211;-78
2022/02/13 06:20:06;;;;;;;14.27;8.83;;;3.20;99.90;;;;;;4967147;28;20239;-79
2022/02/13 06:22:34;;;;;;;12.43;7.87;;;3.20;99.90;;;;;;4966268;28;20244;-79
2022/02/13 06:25:03;;;;;;;9.90;7.83;;;3.20;99.90;;;;;;4981995;28;20204;-78
2022/02/13 06:27:30;;;;;;;9.40;7.63;;;3.20;99.90;;;;;;4986390;28;20607;-80
2022/02/13 06:29:56;;;;;;;10.00;7.47;;;3.20;99.90;;;;;;4986124;28;20588;-80
2022/02/13 06:32:23;;;;;;;10.33;7.07;;;3.20;99.90;;;;;;4967219;28;20244;-78
2022/02/13 06:34:50;;;;;;;11.80;7.07;;;3.20;99.90;;;;;;4966718;28;20618;-79
2022/02/13 06:37:17;;;;;;;12.27;7.20;;;3.20;99.90;;;;;;4975384;28;20199;-78
2022/02/13 06:39:44;;;;;;;12.20;8.10;;;3.20;99.90;;;;;;4985357;28;20224;-78
2022/02/13 06:42:12;;;;;;;12.60;7.87;;;3.20;99.90;;;;;;4985499;28;20211;-79
2022/02/13 06:44:39;;;;;;;15.27;7.47;;;3.20;99.90;;;;;;4974748;28;20216;-78
2022/02/13 06:47:06;;;;;;;10.80;7.07;;;3.20;99.90;;;;;;4989940;28;20203;-77
2022/02/13 06:49:33;;;;;;;11.17;7.90;;;3.20;99.90;;;;;;5005713;28;20214;-80
2022/02/13 06:52:00;;;;;;;12.53;8.00;;;3.30;99.90;;;;;;4977898;28;20204;-80
2022/02/13 06:54:26;;;;;;;11.23;7.63;;;3.30;99.90;;;;;;4973649;28;20258;-79
2022/02/13 06:56:53;;;;;;;12.00;7.67;;;3.30;99.90;;;;;;4986148;28;20216;-77
2022/02/13 06:59:22;;;;;;;13.13;7.80;;;3.30;99.90;;;;;;4985021;28;20207;-80
2022/02/13 07:01:49;;;;;;;12.83;8.07;;;3.40;99.90;;;;;;4985312;28;20871;-79
2022/02/13 07:04:17;;;;;;;9.73;7.37;;;3.40;99.90;;;;;;4986186;28;20212;-77
2022/02/13 07:06:45;;;;;;;11.93;7.77;;;3.40;99.90;;;;;;4985770;28;20199;-80
2022/02/13 07:09:11;;;;;;;12.73;8.13;;;3.40;99.90;;;;;;4985358;28;20509;-78
2022/02/13 07:11:38;;;;;;;9.90;7.07;;;3.40;99.90;;;;;;5004859;28;20214;-78
2022/02/13 07:14:05;;;;;;;11.37;8.03;;;3.50;99.90;;;;;;4997328;28;20529;-80
2022/02/13 07:16:33;;;;;;;10.07;7.20;;;3.50;99.90;;;;;;4986367;28;20600;-81
2022/02/13 07:19:00;;;;;;;13.77;7.83;;;3.40;99.90;;;;;;4986713;28;20371;-77
2022/02/13 07:21:27;;;;;;;10.20;7.97;;;3.50;99.90;;;;;;4985808;28;20330;-79
2022/02/13 07:23:53;;;;;;;10.10;7.33;;;3.50;99.90;;;;;;4985550;28;20212;-77
2022/02/13 07:26:20;;;;;;;13.87;8.27;;;3.50;99.90;;;;;;4985757;28;20227;-79
2022/02/13 07:29:00;;;;;;;16.27;7.47;;;3.60;99.90;;;;;;4985595;28;20212;-78
2022/02/13 07:31:27;;;;;;;12.13;7.70;;;3.70;99.90;;;;;;5001008;28;20592;-80
2022/02/13 07:33:55;;;;;;;10.87;7.33;;;3.70;99.90;;;;;;5005285;28;20600;-78
2022/02/13 07:36:22;;;;;;;13.40;8.07;;;3.70;99.90;;;;;;5005517;28;20201;-79
2022/02/13 07:38:49;;;;;;;11.63;7.43;;;3.70;99.90;;;;;;5004783;28;20215;-80
2022/02/13 07:41:16;;;;;;;12.27;7.50;;;3.70;99.90;;;;;;5004395;28;20234;-80
2022/02/13 07:43:43;;;;;;;12.07;8.13;;;3.80;99.90;;;;;;4987974;28;20219;-80
2022/02/13 07:46:10;;;;;;;12.47;7.20;;;3.70;99.90;;;;;;4990448;28;20203;-79
2022/02/13 07:48:37;;;;;;;9.67;7.40;;;3.80;99.90;;;;;;5004874;28;20217;-79
2022/02/13 07:51:05;;;;;;;11.77;7.70;;;3.80;99.90;;;;;;5005332;28;20203;-79
2022/02/13 07:53:32;;;;;;;10.67;7.53;;;3.80;99.90;;;;;;5005258;28;20502;-78
2022/02/13 07:55:59;;;;;;;9.70;6.80;;;3.90;99.90;;;;;;4994454;28;20260;-78
2022/02/13 07:58:30;;;;;;;10.70;7.17;;;3.90;99.90;;;;;;4925653;28;20215;-79
2022/02/13 08:00:57;;;;;;;11.40;7.77;;;3.90;99.90;;;;;;4984352;28;20610;-79
2022/02/13 08:03:23;;;;;;;12.17;7.87;;;3.90;99.90;;;;;;4984588;28;20270;-79
2022/02/13 08:05:50;;;;;;;11.87;7.20;;;3.90;99.90;;;;;;4985099;28;20310;-79
2022/02/13 08:08:18;;;;;;;13.27;7.50;;;4.00;99.90;;;;;;4985319;28;20204;-80
2022/02/13 08:10:46;;;;;;;10.70;7.27;;;4.00;99.90;;;;;;4984454;28;20211;-78
2022/02/13 08:13:14;;;;;;;11.30;7.13;;;4.00;99.90;;;;;;4986687;28;20215;-76
2022/02/13 08:15:41;;;;;;;10.57;7.60;;;4.00;99.90;;;;;;5003993;28;20310;-79
2022/02/13 08:18:09;;;;;;;11.20;7.43;;;4.00;99.90;;;;;;5004653;28;20210;-79
2022/02/13 08:20:36;;;;;;;12.17;7.43;;;4.10;99.90;;;;;;4996844;28;20219;-81
2022/02/13 08:23:03;;;;;;;12.50;7.87;;;4.10;99.90;;;;;;4988920;28;20209;-77
2022/02/13 08:25:31;;;;;;;11.80;7.57;;;4.10;99.90;;;;;;4988367;28;20200;-79
2022/02/13 08:27:58;;;;;;;12.67;7.27;;;4.10;99.90;;;;;;4971066;28;20208;-79
2022/02/13 08:30:25;;;;;;;11.23;7.43;;;4.10;99.90;;;;;;4999070;28;20222;-78
2022/02/13 08:32:52;;;;;;;15.47;7.73;;;4.20;99.90;;;;;;5007340;28;20211;-78
2022/02/13 08:35:21;;;;;;;10.93;7.43;;;4.30;99.90;;;;;;5007990;28;20203;-77
2022/02/13 08:37:48;;;;;;;10.77;6.83;;;4.30;99.90;;;;;;5003622;28;20298;-80
2022/02/13 08:40:15;;;;;;;12.00;6.97;;;4.30;99.90;;;;;;4988454;28;20243;-80
2022/02/13 08:42:43;;;;;;;8.43;6.47;;;4.40;99.90;;;;;;4988167;28;20214;-78
2022/02/13 08:45:10;;;;;;;10.07;6.87;;;4.40;99.90;;;;;;4980051;28;20211;-79
2022/02/13 08:47:37;;;;;;;9.53;7.10;;;4.50;99.90;;;;;;5004576;28;20203;-80
2022/02/13 08:50:04;;;;;;;12.97;7.47;;;4.50;99.90;;;;;;4994407;28;20204;-78
2022/02/13 08:52:31;;;;;;;8.03;6.63;;;4.60;99.90;;;;;;4988143;28;20207;-79
2022/02/13 08:54:57;;;;;;;10.23;6.90;;;4.60;99.90;;;;;;4998795;28;20601;-79
2022/02/13 08:57:24;;;;;;;10.90;6.90;;;4.60;99.90;;;;;;5007630;28;20207;-78
2022/02/13 08:59:52;;;;;;;11.37;6.47;;;4.60;99.90;;;;;;5006245;28;20206;-78
2022/02/13 09:02:19;;;;;;;8.53;6.37;;;4.70;99.90;;;;;;5007620;28;20281;-80
2022/02/13 09:04:46;;;;;;;11.60;6.43;;;4.70;99.90;;;;;;5008483;28;20195;-81
2022/02/13 09:07:13;;;;;;;11.00;6.77;;;4.70;99.90;;;;;;5007237;28;20206;-80
2022/02/13 09:09:43;;;;;;;10.77;7.20;;;4.80;99.90;;;;;;4987960;28;20208;-78
2022/02/13 09:12:10;;;;;;;13.13;6.83;;;4.80;99.90;;;;;;4988480;28;20203;-79
2022/02/13 09:14:37;;;;;;;8.20;6.33;;;4.90;99.90;;;;;;4987959;28;20208;-80
2022/02/13 09:17:06;;;;;;;7.37;6.50;;;4.90;99.90;;;;;;4987900;28;20991;-79
2022/02/13 09:19:33;;;;;;;9.47;7.13;;;4.90;99.90;;;;;;4987131;28;20223;-78
2022/02/13 09:22:00;;;;;;;7.60;6.17;;;5.00;99.90;;;;;;4987199;28;20231;-79
2022/02/13 09:24:27;;;;;;;11.37;7.23;;;5.00;99.90;;;;;;4971170;28;20219;-80
2022/02/13 09:26:54;;;;;;;10.77;7.07;;;5.00;99.90;;;;;;4986752;28;20204;-80
2022/02/13 09:29:20;;;;;;;9.33;6.40;;;5.10;99.90;;;;;;4986951;28;20207;-80
2022/02/13 09:31:47;;;;;;;11.57;7.77;;;5.10;99.90;;;;;;4987602;28;20294;-79
2022/02/13 09:34:18;;;;;;;9.40;6.97;;;5.20;99.90;;;;;;4987024;28;20215;-77
2022/02/13 09:36:47;;;;;;;7.17;6.17;;;5.20;99.90;;;;;;4987753;28;20267;-79
2022/02/13 09:39:14;;;;;;;9.60;6.13;;;5.30;99.90;;;;;;4987669;28;20212;-79
2022/02/13 09:41:41;;;;;;;9.60;6.23;;;5.40;99.90;;;;;;4986683;28;20259;-79
2022/02/13 09:44:09;;;;;;;9.73;6.53;;;5.40;99.90;;;;;;4986463;28;20270;-78
2022/02/13 09:46:36;;;;;;;8.93;5.43;;;5.50;99.90;;;;;;4994399;28;20211;-79
2022/02/13 09:49:05;;;;;;;9.53;6.87;;;5.50;99.90;;;;;;5004766;28;20671;-78
2022/02/13 09:51:34;;;;;;;8.83;6.63;;;5.60;99.90;;;;;;5005874;28;20267;-80
2022/02/13 09:54:01;;;;;;;11.17;6.53;;;5.70;99.90;;;;;;5006334;28;20582;-79
2022/02/13 09:56:28;;;;;;;10.07;5.73;;;5.70;99.90;;;;;;5005975;28;20207;-80
2022/02/13 09:58:56;;;;;;;10.53;6.07;;;5.70;99.90;;;;;;5006022;28;20207;-79
2022/02/13 10:01:35;;;;;;;8.97;5.93;;;5.80;99.90;;;;;;5006168;28;20227;-79
2022/02/13 10:04:02;;;;;;;12.23;5.50;;;5.90;99.90;;;;;;5005469;28;20286;-80
2022/02/13 10:06:29;;;;;;;6.90;6.10;;;5.90;99.90;;;;;;5006601;28;20498;-79
2022/02/13 10:08:58;;;;;;;9.53;6.30;;;6.00;99.90;;;;;;5005102;28;20871;-81
2022/02/13 10:11:28;;;;;;;6.70;5.77;;;6.10;99.90;;;;;;5006626;28;20211;-77
2022/02/13 10:13:57;;;;;;;8.17;6.10;;;6.10;99.90;;;;;;5006028;28;20207;-80
2022/02/13 10:16:27;;;;;;;11.07;5.90;;;6.30;99.90;;;;;;5005096;28;20243;-79
2022/02/13 10:18:57;;;;;;;8.73;6.27;;;6.40;99.90;;;;;;5005803;28;20238;-79
2022/02/13 10:21:36;;;;;;;10.47;6.93;;;6.50;99.90;;;;;;4986819;28;20234;-81
2022/02/13 10:24:27;;;;;;;7.83;5.67;;;6.50;99.90;;;;;;4985302;28;20650;-78
2022/02/13 10:27:11;;;;;;;10.53;5.87;;;6.60;99.90;;;;;;4986816;28;20228;-77
2022/02/13 10:29:40;;;;;;;11.47;6.27;;;6.60;99.90;;;;;;5000248;28;20211;-79
2022/02/13 10:32:17;;;;;;;9.37;5.93;;;6.60;99.90;;;;;;5005257;28;20469;-80
2022/02/13 10:35:03;;;;;;;11.30;5.87;;;6.70;99.90;;;;;;5005435;28;20643;-78
2022/02/13 10:37:42;;;;;;;8.47;6.03;;;6.80;99.90;;;;;;5018440;28;20289;-79
2022/02/13 10:40:12;;;;;;;10.23;5.63;;;6.90;99.90;;;;;;5026066;28;20222;-79
2022/02/13 10:42:39;;;;;;;9.00;5.80;;;6.90;99.90;;;;;;5007689;28;20235;-79
2022/02/13 10:45:23;;;;;;;8.03;5.57;;;7.00;99.90;;;;;;4985127;28;20219;-78
2022/02/13 10:47:52;;;;;;;8.37;5.37;;;7.00;99.90;;;;;;5002810;28;20215;-78
2022/02/13 10:50:20;;;;;;;9.20;6.13;;;7.10;99.90;;;;;;4994142;28;20299;-77
2022/02/13 10:52:48;;;;;;;8.87;5.33;;;7.10;99.90;;;;;;4985198;28;20214;-79
2022/02/13 10:55:17;;;;;;;7.80;5.80;;;7.10;99.90;;;;;;4985244;28;20244;-79
2022/02/13 10:57:44;;;;;;;10.20;6.23;;;7.00;99.90;;;;;;4985711;28;20208;-78
2022/02/13 11:00:12;;;;;;;10.23;6.00;;;7.10;99.90;;;;;;4985415;28;20211;-79
2022/02/13 11:02:40;;;;;;;7.80;5.57;;;7.10;99.90;;;;;;4985486;28;20239;-80
2022/02/13 11:05:09;;;;;;;10.47;6.40;;;7.20;99.90;;;;;;4985948;28;20281;-78
2022/02/13 11:07:39;;;;;;;12.10;6.23;;;7.30;99.90;;;;;;4987172;28;20231;-78
2022/02/13 11:10:10;;;;;;;8.70;5.53;;;7.30;99.90;;;;;;4985595;28;20204;-80
2022/02/13 11:12:39;;;;;;;9.90;5.60;;;7.30;99.90;;;;;;4985577;28;20903;-78
2022/02/13 11:15:17;;;;;;;8.37;5.87;;;7.40;99.90;;;;;;4987465;28;20258;-81
2022/02/13 11:17:46;;;;;;;7.53;5.37;;;7.40;99.90;;;;;;4984404;28;20314;-80
2022/02/13 11:20:15;;;;;;;9.00;5.97;;;7.50;99.90;;;;;;4985981;28;20374;-80
2022/02/13 11:22:42;;;;;;;8.03;5.43;;;7.50;99.90;;;;;;4984479;28;20232;-78
2022/02/13 11:25:10;;;;;;;9.43;5.50;;;7.60;99.90;;;;;;4986001;28;20235;-78
2022/02/13 11:27:54;;;;;;;7.07;5.13;;;7.60;99.90;;;;;;4986094;28;20838;-82
2022/02/13 11:30:42;;;;;;;10.97;5.60;;;7.60;99.90;;;;;;4986125;28;20265;-81
2022/02/13 11:33:35;;;;;;;6.83;5.03;;;7.70;99.90;;;;;;4986373;28;20204;-77
2022/02/13 11:36:04;;;;;;;10.60;5.80;;;7.70;99.90;;;;;;4988874;28;20215;-77
2022/02/13 11:38:53;;;;;;;8.07;5.57;;;7.70;99.90;;;;;;5025433;28;20252;-81
2022/02/13 11:41:21;;;;;;;12.03;5.70;;;7.70;99.90;;;;;;5023905;28;20233;-79
2022/02/13 11:44:02;;;;;;;9.23;5.40;;;7.80;99.90;;;;;;5010357;28;20204;-79
2022/02/13 11:46:57;;;;;;;8.60;5.20;;;7.90;99.90;;;;;;4992406;28;20211;-80
2022/02/13 11:49:24;;;;;;;7.73;5.77;;;7.90;99.90;;;;;;5004176;28;20250;-79
2022/02/13 11:52:00;;;;;;;7.30;5.07;;;8.00;99.90;;;;;;5004492;28;20250;-79
2022/02/13 11:54:53;;;;;;;7.27;4.80;;;7.90;99.90;;;;;;5005379;28;20270;-79
2022/02/13 11:57:20;;;;;;;7.93;5.27;;;8.00;99.90;;;;;;5008594;28;20203;-78
2022/02/13 11:59:51;;;;;;;8.53;5.23;;;7.90;99.90;;;;;;4996558;28;20274;-81
2022/02/13 12:02:18;;;;;;;8.17;5.87;;;7.90;99.90;;;;;;4988539;28;20263;-78
2022/02/13 12:05:15;;;;;;;10.03;5.13;;;7.90;99.90;;;;;;4989139;28;20203;-76
2022/02/13 12:07:55;;;;;;;10.73;5.20;;;7.90;99.90;;;;;;4988749;28;20221;-74
2022/02/13 12:10:26;;;;;;;6.43;4.63;;;7.80;99.90;;;;;;4988874;28;20223;-76
2022/02/13 12:13:03;;;;;;;8.17;5.27;;;7.90;99.90;;;;;;4989095;28;20644;-76
2022/02/13 12:15:31;;;;;;;7.93;5.50;;;7.90;99.90;;;;;;4987888;28;20612;-76
2022/02/13 12:18:05;;;;;;;7.83;4.97;;;7.90;99.90;;;;;;4988942;28;20262;-79
2022/02/13 12:20:34;;;;;;;7.03;5.00;;;8.00;99.90;;;;;;5008108;28;20534;-76
2022/02/13 12:23:03;;;;;;;8.27;5.30;;;8.00;99.90;;;;;;5000508;28;20235;-81
2022/02/13 12:25:32;;;;;;;6.27;4.63;;;8.00;99.90;;;;;;4988389;28;20232;-79
2022/02/13 12:27:59;;;;;;;10.60;5.50;;;8.00;99.90;;;;;;4988412;28;20212;-79
2022/02/13 12:30:26;;;;;;;6.07;4.57;;;8.00;99.90;;;;;;4997045;28;20441;-79
2022/02/13 12:32:58;;;;;;;8.37;5.07;;;8.00;99.90;;;;;;5007585;28;20203;-79
2022/02/13 12:35:29;;;;;;;7.83;4.57;;;8.00;99.90;;;;;;5008593;28;20297;-80
2022/02/13 12:37:57;;;;;;;6.63;4.53;;;8.10;99.90;;;;;;5007723;28;20215;-79
2022/02/13 12:40:28;;;;;;;7.37;5.10;;;8.10;99.90;;;;;;5006378;28;20227;-77
2022/02/13 12:42:57;;;;;;;8.50;4.67;;;8.20;99.90;;;;;;4987439;28;20227;-78
2022/02/13 12:45:26;;;;;;;6.23;4.07;;;8.20;99.90;;;;;;4987656;28;20231;-77
2022/02/13 12:47:55;;;;;;;8.63;4.33;;;8.20;99.90;;;;;;5005698;28;20207;-77
2022/02/13 12:50:25;;;;;;;5.67;4.23;;;8.30;99.90;;;;;;5007470;28;20218;-78
2022/02/13 12:52:52;;;;;;;5.30;4.00;;;8.30;99.90;;;;;;5006641;28;20226;-77
2022/02/13 12:55:21;;;;;;;9.20;4.73;;;8.40;99.90;;;;;;5006858;28;20643;-79
2022/02/13 12:57:52;;;;;;;5.77;4.20;;;8.50;99.90;;;;;;5006178;28;20207;-78